Time;durP1;ratioP1;P1;durP2;ratioP2;P2;SDS_P1;SDS_P2;PMS_P1;PMS_P2;Temp;Humidity;BMP_temperature;BMP_pressure;BME280_temperature;BME280_humidity;BME280_pressure;Samples;Min_cycle;Max_cycle;Signal;HPM_P1;HPM_P2
2023/05/02 00:01:55;;;;;;;7.73;4.80;;;14.00;49.00;;;;;;5207726;28;20196;-47
2023/05/02 00:04:26;;;;;;;5.40;4.77;;;14.00;49.10;;;;;;5199663;28;20477;-45
2023/05/02 00:06:57;;;;;;;4.20;4.00;;;14.00;49.10;;;;;;5214261;28;20226;-46
2023/05/02 00:09:28;;;;;;;12.90;4.83;;;13.90;49.00;;;;;;5202924;28;20192;-47
2023/05/02 00:11:59;;;;;;;6.63;5.40;;;13.80;49.00;;;;;;5207045;28;20175;-46
2023/05/02 00:14:30;;;;;;;5.50;4.60;;;13.80;49.10;;;;;;5206311;28;20454;-45
2023/05/02 00:17:01;;;;;;;5.63;4.70;;;13.80;49.30;;;;;;5204865;28;20192;-47
2023/05/02 00:19:31;;;;;;;9.20;5.27;;;13.70;49.30;;;;;;5203559;28;22211;-47
2023/05/02 00:22:02;;;;;;;14.77;5.00;;;13.60;49.40;;;;;;5197329;28;20195;-47
2023/05/02 00:24:32;;;;;;;5.53;4.50;;;13.50;49.40;;;;;;5204469;28;20204;-47
2023/05/02 00:27:03;;;;;;;7.53;5.23;;;13.50;49.70;;;;;;5202204;28;20199;-47
2023/05/02 00:29:34;;;;;;;6.37;4.13;;;13.40;49.90;;;;;;5198296;28;20199;-47
2023/05/02 00:32:05;;;;;;;10.40;5.83;;;13.30;50.50;;;;;;5201319;28;20254;-47
2023/05/02 00:34:36;;;;;;;7.50;4.93;;;13.30;50.10;;;;;;5207453;28;20226;-46
2023/05/02 00:37:07;;;;;;;8.30;5.00;;;13.30;50.20;;;;;;5200363;28;20442;-46
2023/05/02 00:39:37;;;;;;;8.33;3.90;;;13.20;50.30;;;;;;5203826;28;20282;-46
2023/05/02 00:42:08;;;;;;;5.93;4.67;;;13.20;50.40;;;;;;5207144;28;20809;-45
2023/05/02 00:44:39;;;;;;;4.30;3.90;;;13.20;50.30;;;;;;5203138;28;20621;-46
2023/05/02 00:47:09;;;;;;;5.80;5.07;;;13.20;50.30;;;;;;5201269;28;20270;-46
2023/05/02 00:49:41;;;;;;;7.70;5.80;;;13.20;50.40;;;;;;5205029;28;20812;-48
2023/05/02 00:52:11;;;;;;;5.37;4.50;;;13.20;50.40;;;;;;5205546;28;20192;-46
2023/05/02 00:54:43;;;;;;;8.70;4.43;;;13.10;50.20;;;;;;5204239;28;20457;-45
2023/05/02 00:57:13;;;;;;;7.00;4.30;;;13.20;50.30;;;;;;5204378;28;20237;-46
2023/05/02 00:59:44;;;;;;;5.67;4.27;;;13.20;50.30;;;;;;5187360;28;20938;-45
2023/05/02 01:02:30;;;;;;;16.83;4.70;;;13.20;50.20;;;;;;5202891;28;20206;-47
2023/05/02 01:05:07;;;;;;;5.03;4.57;;;13.20;50.40;;;;;;5203890;28;20717;-46
2023/05/02 01:07:53;;;;;;;7.23;4.73;;;13.10;50.60;;;;;;5202269;28;20844;-46
2023/05/02 01:10:43;;;;;;;7.10;4.20;;;13.10;51.20;;;;;;5203549;28;20484;-46
2023/05/02 01:13:23;;;;;;;6.40;4.13;;;13.10;51.50;;;;;;5205931;28;20804;-46
2023/05/02 01:15:57;;;;;;;5.53;5.03;;;13.10;52.00;;;;;;5203376;28;20465;-46
2023/05/02 01:18:32;;;;;;;4.40;4.00;;;13.00;52.40;;;;;;5226157;28;20462;-56
2023/05/02 01:21:06;;;;;;;6.03;4.10;;;13.00;52.70;;;;;;5208550;28;20443;-46
2023/05/02 01:23:56;;;;;;;5.50;3.83;;;12.90;53.10;;;;;;5189912;28;20465;-46
2023/05/02 01:26:36;;;;;;;10.97;5.30;;;12.90;53.40;;;;;;5207134;28;20501;-45
2023/05/02 01:29:08;;;;;;;8.70;4.30;;;12.90;54.20;;;;;;5204616;28;20503;-46
2023/05/02 01:31:43;;;;;;;3.57;3.27;;;12.90;54.80;;;;;;5208700;28;20438;-46
2023/05/02 01:34:15;;;;;;;5.50;4.50;;;12.90;55.20;;;;;;5208064;28;20433;-46
2023/05/02 01:36:49;;;;;;;7.17;3.90;;;12.90;55.40;;;;;;5207214;28;20433;-45
2023/05/02 01:39:22;;;;;;;10.30;4.90;;;13.00;56.30;;;;;;5206260;28;20463;-45
2023/05/02 01:41:56;;;;;;;4.67;4.27;;;13.00;55.90;;;;;;5207857;28;20438;-46
2023/05/02 01:44:29;;;;;;;4.90;4.50;;;13.00;56.30;;;;;;5206058;28;21017;-47
2023/05/02 01:47:02;;;;;;;4.67;4.27;;;13.00;56.50;;;;;;5206308;28;20517;-45
2023/05/02 01:49:34;;;;;;;6.73;4.67;;;13.00;56.80;;;;;;5211966;28;20457;-46
2023/05/02 01:52:09;;;;;;;9.17;5.27;;;13.00;57.00;;;;;;5205621;28;20441;-46
2023/05/02 01:54:41;;;;;;;5.23;4.30;;;12.90;57.50;;;;;;5208090;28;20977;-45
2023/05/02 01:57:13;;;;;;;4.97;3.97;;;12.90;58.10;;;;;;5206549;28;20473;-46
2023/05/02 01:59:46;;;;;;;10.70;4.47;;;12.80;58.50;;;;;;5211655;28;20438;-46
2023/05/02 02:02:17;;;;;;;5.83;4.67;;;12.70;59.60;;;;;;5204927;28;20454;-47
2023/05/02 02:04:49;;;;;;;4.80;4.13;;;12.60;59.50;;;;;;5208079;28;21012;-45
2023/05/02 02:07:20;;;;;;;5.17;4.57;;;12.60;60.50;;;;;;5204738;28;20449;-45
2023/05/02 02:09:51;;;;;;;6.73;4.73;;;12.50;61.20;;;;;;5206283;28;20462;-47
2023/05/02 02:12:29;;;;;;;4.37;4.07;;;12.50;62.00;;;;;;5206739;28;20442;-45
2023/05/02 02:15:10;;;;;;;8.80;3.80;;;12.40;62.70;;;;;;5206249;28;20472;-47
2023/05/02 02:18:07;;;;;;;7.00;3.77;;;12.40;63.80;;;;;;5220320;28;20442;-45
2023/05/02 02:20:42;;;;;;;6.70;3.60;;;12.40;64.40;;;;;;5220726;28;20442;-46
2023/05/02 02:23:14;;;;;;;4.83;4.30;;;12.40;65.60;;;;;;5215509;28;20442;-46
2023/05/02 02:25:45;;;;;;;3.83;3.53;;;12.40;66.20;;;;;;5201508;28;20458;-46
2023/05/02 02:28:16;;;;;;;5.80;3.73;;;12.40;66.90;;;;;;5211571;28;20438;-45
2023/05/02 02:30:47;;;;;;;7.50;4.83;;;12.30;67.90;;;;;;5201031;28;20465;-48
2023/05/02 02:33:19;;;;;;;3.97;3.63;;;12.30;69.60;;;;;;5210918;28;20248;-45
2023/05/02 02:36:07;;;;;;;4.87;3.90;;;12.20;70.90;;;;;;5210119;28;20198;-46
2023/05/02 02:38:59;;;;;;;3.67;3.30;;;12.10;72.30;;;;;;5219914;28;20438;-45
2023/05/02 02:41:35;;;;;;;4.67;3.33;;;12.10;74.00;;;;;;5205081;28;20451;-46
2023/05/02 02:44:17;;;;;;;7.63;3.80;;;12.00;75.70;;;;;;5208170;28;20442;-44
2023/05/02 02:47:02;;;;;;;3.70;3.50;;;11.90;77.20;;;;;;5208175;28;20941;-46
2023/05/02 02:50:08;;;;;;;3.87;3.67;;;11.80;79.30;;;;;;5204043;28;20963;-45
2023/05/02 02:53:04;;;;;;;3.80;3.50;;;11.80;80.50;;;;;;5208957;28;20469;-45
2023/05/02 02:56:07;;;;;;;5.60;3.43;;;11.70;82.10;;;;;;5222320;28;20446;-45
2023/05/02 02:59:05;;;;;;;4.27;3.30;;;11.60;83.50;;;;;;5205863;28;20430;-45
2023/05/02 03:01:40;;;;;;;4.93;3.23;;;11.60;85.20;;;;;;5209943;28;20426;-46
2023/05/02 03:04:14;;;;;;;6.43;3.40;;;11.50;87.50;;;;;;5207510;28;20472;-45
2023/05/02 03:06:45;;;;;;;9.90;4.07;;;11.50;88.60;;;;;;5213741;28;20453;-47
2023/05/02 03:09:19;;;;;;;7.07;3.67;;;11.50;89.70;;;;;;5205005;28;20557;-46
2023/05/02 03:11:49;;;;;;;3.97;3.67;;;11.40;90.50;;;;;;5207921;28;20190;-45
2023/05/02 03:14:20;;;;;;;8.10;3.73;;;11.40;90.90;;;;;;5207668;28;20426;-46
2023/05/02 03:16:51;;;;;;;4.77;2.93;;;11.30;91.40;;;;;;5206037;28;20189;-46
2023/05/02 03:19:21;;;;;;;9.97;3.43;;;11.30;92.10;;;;;;5213538;28;20195;-45
2023/05/02 03:21:52;;;;;;;4.13;2.80;;;11.30;92.30;;;;;;5204250;28;20574;-45
2023/05/02 03:24:22;;;;;;;4.13;3.17;;;11.30;92.90;;;;;;5205862;28;20235;-45
2023/05/02 03:26:55;;;;;;;3.43;2.80;;;11.20;93.50;;;;;;5204901;28;20196;-45
2023/05/02 03:29:25;;;;;;;3.30;2.77;;;11.20;93.90;;;;;;5203783;28;20688;-45
2023/05/02 03:31:56;;;;;;;4.30;3.37;;;11.20;94.10;;;;;;5212115;28;20430;-47
2023/05/02 03:34:27;;;;;;;6.80;3.40;;;11.10;94.50;;;;;;5205581;28;20203;-45
2023/05/02 03:36:57;;;;;;;6.30;3.40;;;11.10;94.90;;;;;;5207792;28;20185;-45
2023/05/02 03:39:28;;;;;;;10.80;3.50;;;11.10;95.50;;;;;;5212631;28;20191;-46
2023/05/02 03:41:58;;;;;;;3.73;3.43;;;11.10;95.80;;;;;;5206526;28;20246;-46
2023/05/02 03:44:29;;;;;;;13.03;3.60;;;11.10;96.30;;;;;;5200562;28;20302;-44
2023/05/02 03:47:00;;;;;;;12.43;3.73;;;11.00;96.40;;;;;;5203685;28;20180;-45
2023/05/02 03:49:33;;;;;;;3.27;3.07;;;11.00;97.00;;;;;;5214342;28;20199;-46
2023/05/02 03:52:04;;;;;;;3.33;2.93;;;11.10;97.30;;;;;;5203009;28;20183;-45
2023/05/02 03:54:34;;;;;;;4.30;3.23;;;11.10;97.60;;;;;;5200359;28;20446;-45
2023/05/02 03:57:05;;;;;;;3.20;2.90;;;11.10;97.90;;;;;;5200195;28;20180;-48
2023/05/02 03:59:40;;;;;;;5.93;3.00;;;11.10;98.10;;;;;;5196288;28;20183;-47
2023/05/02 04:02:11;;;;;;;2.93;2.70;;;11.10;98.20;;;;;;5203567;28;20599;-46
2023/05/02 04:04:42;;;;;;;3.50;3.30;;;11.10;98.60;;;;;;5202440;28;20492;-47
2023/05/02 04:07:17;;;;;;;7.03;3.63;;;11.10;99.00;;;;;;5204943;28;20554;-46
2023/05/02 04:09:47;;;;;;;15.20;2.67;;;11.10;99.00;;;;;;5202398;28;20207;-45
2023/05/02 04:12:19;;;;;;;4.60;3.50;;;11.20;99.30;;;;;;5205462;28;20434;-45
2023/05/02 04:14:50;;;;;;;5.10;3.20;;;11.20;99.40;;;;;;5203301;28;20286;-46
2023/05/02 04:17:20;;;;;;;3.30;2.77;;;11.20;99.70;;;;;;5208020;28;20878;-44
2023/05/02 04:19:51;;;;;;;2.70;2.60;;;11.20;99.70;;;;;;5206082;28;20198;-46
2023/05/02 04:22:22;;;;;;;3.60;2.70;;;11.30;99.70;;;;;;5203681;28;20184;-45
2023/05/02 04:24:53;;;;;;;15.10;3.70;;;11.30;99.80;;;;;;5208152;28;20515;-45
2023/05/02 04:27:24;;;;;;;9.60;3.10;;;11.40;99.90;;;;;;5207842;28;20695;-45
2023/05/02 04:29:55;;;;;;;3.67;3.43;;;11.40;99.90;;;;;;5206634;28;20875;-45
2023/05/02 04:32:26;;;;;;;5.00;3.57;;;11.40;99.90;;;;;;5200375;28;20242;-47
2023/05/02 04:34:57;;;;;;;4.23;3.77;;;11.50;99.90;;;;;;5203807;28;20576;-47
2023/05/02 04:37:27;;;;;;;3.50;3.30;;;11.60;99.90;;;;;;5203936;28;20886;-45
2023/05/02 04:39:58;;;;;;;3.13;2.50;;;11.80;99.90;;;;;;5199659;28;20218;-45
2023/05/02 04:42:28;;;;;;;6.27;3.37;;;11.90;99.60;;;;;;5198864;28;20699;-46
2023/05/02 04:45:00;;;;;;;5.07;3.33;;;12.00;99.30;;;;;;5198246;28;20214;-48
2023/05/02 04:47:30;;;;;;;6.97;3.20;;;12.10;99.00;;;;;;5202280;28;20675;-45
2023/05/02 04:50:01;;;;;;;7.77;3.23;;;12.30;98.60;;;;;;5203185;28;20469;-47
2023/05/02 04:52:31;;;;;;;4.30;3.30;;;12.50;97.90;;;;;;5199097;28;20605;-47
2023/05/02 04:55:02;;;;;;;7.13;2.90;;;12.80;97.40;;;;;;5208229;28;20204;-47
2023/05/02 04:57:33;;;;;;;4.17;2.90;;;13.20;96.10;;;;;;5203488;28;20195;-45
2023/05/02 05:00:04;;;;;;;6.20;3.70;;;13.60;94.30;;;;;;5195483;28;20192;-48
2023/05/02 05:02:35;;;;;;;3.30;2.27;;;13.70;92.40;;;;;;5193926;28;20188;-47
2023/05/02 05:05:06;;;;;;;4.20;3.00;;;13.70;92.10;;;;;;5199322;28;20454;-46
2023/05/02 05:07:37;;;;;;;4.10;2.97;;;13.60;91.60;;;;;;5188334;28;20753;-47
2023/05/02 05:10:10;;;;;;;2.90;2.70;;;13.80;90.80;;;;;;5199084;28;20462;-47
2023/05/02 05:12:41;;;;;;;4.77;2.80;;;13.90;90.20;;;;;;5207401;28;20271;-46
2023/05/02 05:15:11;;;;;;;3.20;2.90;;;14.10;88.10;;;;;;5202962;28;20640;-46
2023/05/02 05:17:42;;;;;;;18.93;3.97;;;14.30;85.70;;;;;;5203167;28;20855;-45
2023/05/02 05:20:12;;;;;;;4.30;2.90;;;14.50;83.20;;;;;;5204456;28;20197;-47
2023/05/02 05:22:43;;;;;;;3.30;2.57;;;14.50;82.10;;;;;;5204298;28;20536;-47
2023/05/02 05:25:14;;;;;;;6.97;3.60;;;14.60;80.90;;;;;;5204500;28;20207;-46
2023/05/02 05:27:45;;;;;;;4.90;2.60;;;14.70;80.50;;;;;;5200557;28;20186;-47
2023/05/02 05:30:16;;;;;;;6.73;3.07;;;15.00;77.40;;;;;;5199352;28;20199;-47
2023/05/02 05:32:47;;;;;;;3.00;2.80;;;15.20;75.10;;;;;;5198017;28;20439;-50
2023/05/02 05:35:17;;;;;;;3.80;3.50;;;14.90;75.40;;;;;;5203793;28;20675;-47
2023/05/02 05:37:48;;;;;;;5.87;3.27;;;14.90;75.90;;;;;;5201336;28;20488;-47
2023/05/02 05:40:20;;;;;;;4.10;3.37;;;15.20;75.40;;;;;;5204831;28;20620;-45
2023/05/02 05:42:51;;;;;;;5.87;3.37;;;17.00;70.60;;;;;;5195511;28;20669;-46
2023/05/02 05:45:21;;;;;;;7.93;3.20;;;18.90;60.90;;;;;;5206249;28;20462;-46
2023/05/02 05:47:54;;;;;;;3.40;3.20;;;20.30;54.20;;;;;;5217130;28;20799;-47
2023/05/02 05:50:24;;;;;;;3.93;3.27;;;21.40;49.40;;;;;;5203879;28;20262;-47
2023/05/02 05:52:55;;;;;;;10.20;3.80;;;22.40;46.70;;;;;;5201084;28;20428;-47
2023/05/02 05:55:27;;;;;;;7.30;3.60;;;22.90;45.30;;;;;;5203139;28;20199;-46
2023/05/02 05:57:58;;;;;;;4.47;3.77;;;24.10;43.10;;;;;;5203696;28;20730;-46
2023/05/02 06:00:28;;;;;;;8.70;3.80;;;24.20;41.20;;;;;;5197231;28;20434;-47
2023/05/02 06:02:59;;;;;;;6.23;3.10;;;23.90;41.80;;;;;;5197740;28;20187;-46
2023/05/02 06:05:31;;;;;;;5.93;3.63;;;23.30;41.80;;;;;;5199660;28;20202;-47
2023/05/02 06:08:01;;;;;;;7.63;4.20;;;23.60;41.80;;;;;;5200667;28;20431;-46
2023/05/02 06:10:32;;;;;;;3.23;2.63;;;24.00;41.10;;;;;;5204151;28;20461;-46
2023/05/02 06:13:02;;;;;;;8.63;3.70;;;24.90;40.30;;;;;;5203096;28;20260;-46
2023/05/02 06:15:34;;;;;;;5.37;3.90;;;24.70;38.90;;;;;;5201005;28;20529;-46
2023/05/02 06:18:04;;;;;;;4.23;3.00;;;24.00;39.70;;;;;;5199756;28;20175;-49
2023/05/02 06:20:36;;;;;;;5.17;4.40;;;24.50;40.50;;;;;;5180990;28;20443;-48
2023/05/02 06:23:06;;;;;;;3.93;3.60;;;24.90;38.90;;;;;;5182436;28;20195;-47
2023/05/02 06:25:37;;;;;;;6.53;3.93;;;25.00;39.40;;;;;;5194227;28;20462;-45
2023/05/02 06:28:08;;;;;;;5.00;4.50;;;25.90;38.70;;;;;;5197555;28;20191;-47
2023/05/02 06:30:39;;;;;;;4.60;4.20;;;26.50;37.60;;;;;;5200172;28;20204;-47
2023/05/02 06:33:11;;;;;;;12.10;5.20;;;26.10;37.70;;;;;;5195662;28;20188;-48
2023/05/02 06:35:41;;;;;;;5.80;5.07;;;26.30;37.50;;;;;;5198466;28;20454;-47
2023/05/02 06:38:12;;;;;;;7.13;5.30;;;26.20;37.90;;;;;;5199351;28;20804;-47
2023/05/02 06:40:44;;;;;;;13.00;7.23;;;25.30;38.00;;;;;;5183603;28;20218;-45
2023/05/02 06:43:14;;;;;;;7.17;5.30;;;25.40;38.80;;;;;;5209867;28;20242;-48
2023/05/02 06:45:45;;;;;;;6.20;5.40;;;26.20;38.90;;;;;;5200777;28;20449;-48
2023/05/02 06:48:16;;;;;;;9.10;5.87;;;25.40;38.10;;;;;;5196452;28;20834;-45
2023/05/02 06:50:47;;;;;;;7.20;5.60;;;25.70;38.20;;;;;;5199783;28;20726;-48
2023/05/02 06:53:18;;;;;;;7.60;5.53;;;26.00;38.70;;;;;;5200518;28;20651;-46
2023/05/02 06:55:49;;;;;;;7.83;6.00;;;26.70;37.30;;;;;;5176975;28;20450;-46
2023/05/02 06:58:19;;;;;;;11.90;6.53;;;26.90;37.00;;;;;;5192434;28;20803;-47
2023/05/02 07:00:50;;;;;;;7.87;4.87;;;27.10;36.00;;;;;;5194549;28;20635;-47
2023/05/02 07:03:20;;;;;;;5.80;5.27;;;25.90;37.50;;;;;;5193587;28;20221;-48
2023/05/02 07:05:51;;;;;;;6.17;5.53;;;25.90;38.30;;;;;;5196037;28;20212;-47
2023/05/02 07:08:22;;;;;;;5.87;4.53;;;26.90;36.90;;;;;;5198548;28;20187;-47
2023/05/02 07:10:53;;;;;;;6.93;4.83;;;25.90;36.80;;;;;;5201807;28;20698;-49
2023/05/02 07:13:23;;;;;;;5.50;5.03;;;25.70;38.60;;;;;;5200442;28;20437;-46
2023/05/02 07:15:55;;;;;;;13.70;5.83;;;25.70;37.90;;;;;;5192903;28;20633;-45
2023/05/02 07:18:26;;;;;;;6.80;6.17;;;25.00;39.30;;;;;;5199448;28;20179;-51
2023/05/02 07:20:56;;;;;;;11.00;5.80;;;23.90;40.90;;;;;;5198067;28;20795;-45
2023/05/02 07:23:27;;;;;;;5.80;5.00;;;21.90;43.10;;;;;;5197708;28;20242;-46
2023/05/02 07:25:57;;;;;;;6.30;5.20;;;20.40;46.60;;;;;;5200376;28;20196;-47
2023/05/02 07:28:28;;;;;;;7.63;5.30;;;21.20;46.90;;;;;;5200197;28;20264;-46
2023/05/02 07:30:59;;;;;;;6.17;5.33;;;22.20;45.10;;;;;;5195588;28;20219;-46
2023/05/02 07:33:29;;;;;;;5.97;5.20;;;21.70;44.80;;;;;;5196887;28;20175;-47
2023/05/02 07:36:02;;;;;;;6.97;5.23;;;21.00;46.90;;;;;;5198449;28;20219;-46
2023/05/02 07:38:32;;;;;;;5.20;4.70;;;22.20;45.00;;;;;;5194900;28;20703;-47
2023/05/02 07:41:03;;;;;;;7.43;5.20;;;21.40;45.50;;;;;;5185762;28;20480;-47
2023/05/02 07:43:33;;;;;;;4.13;3.80;;;20.50;47.50;;;;;;5191794;28;20195;-45
2023/05/02 07:46:05;;;;;;;11.57;5.03;;;19.60;48.70;;;;;;5195301;28;20651;-49
2023/05/02 07:48:36;;;;;;;7.87;5.67;;;19.00;50.10;;;;;;5197674;28;20202;-47
2023/05/02 07:51:08;;;;;;;11.47;6.33;;;18.40;51.70;;;;;;5192669;28;20438;-48
2023/05/02 07:53:39;;;;;;;7.67;4.87;;;18.60;52.60;;;;;;5189793;28;20192;-46
2023/05/02 07:56:10;;;;;;;11.80;5.07;;;18.40;52.60;;;;;;5213922;28;20447;-46
2023/05/02 07:58:41;;;;;;;17.37;11.10;;;18.20;53.00;;;;;;5193530;28;20176;-50
2023/05/02 08:01:11;;;;;;;38.13;18.00;;;17.80;53.50;;;;;;5195261;28;20881;-52
2023/05/02 08:03:42;;;;;;;9.00;5.80;;;17.40;54.80;;;;;;5197476;28;20282;-50
2023/05/02 08:06:13;;;;;;;9.57;4.40;;;17.20;55.90;;;;;;5192220;28;20574;-49
2023/05/02 08:08:43;;;;;;;4.67;4.27;;;17.00;56.50;;;;;;5199031;28;20462;-49
2023/05/02 08:11:14;;;;;;;4.47;4.07;;;16.90;57.40;;;;;;5193485;28;20218;-52
2023/05/02 08:13:45;;;;;;;4.77;4.37;;;16.70;58.40;;;;;;5193016;28;20612;-50
2023/05/02 08:16:15;;;;;;;4.77;4.23;;;16.60;59.70;;;;;;5196974;28;20220;-50
2023/05/02 08:18:46;;;;;;;4.63;4.23;;;16.90;60.70;;;;;;5194873;28;20278;-50
2023/05/02 08:21:17;;;;;;;4.60;4.23;;;17.10;60.00;;;;;;5191606;28;20238;-50
2023/05/02 08:23:47;;;;;;;3.30;2.97;;;17.80;59.10;;;;;;5197860;28;20226;-50
2023/05/02 08:26:20;;;;;;;2.80;2.60;;;18.00;56.90;;;;;;5196997;28;20563;-53
2023/05/02 08:28:51;;;;;;;3.63;3.33;;;18.00;56.70;;;;;;5198121;28;20672;-50
2023/05/02 08:31:22;;;;;;;3.80;3.50;;;17.80;57.30;;;;;;5201896;28;20450;-50
2023/05/02 08:33:52;;;;;;;3.40;3.20;;;17.50;58.30;;;;;;5198492;28;20262;-52
2023/05/02 08:36:24;;;;;;;3.23;3.03;;;16.50;61.40;;;;;;5195231;28;20208;-49
2023/05/02 08:38:54;;;;;;;4.77;4.27;;;16.00;65.20;;;;;;5194910;28;20183;-52
2023/05/02 08:41:28;;;;;;;4.63;4.30;;;15.80;69.80;;;;;;5194295;28;20454;-50
2023/05/02 08:43:59;;;;;;;4.70;3.73;;;15.70;74.20;;;;;;5198220;28;20204;-51
2023/05/02 08:46:31;;;;;;;5.50;5.00;;;15.40;77.50;;;;;;5201019;28;20470;-51
2023/05/02 08:49:02;;;;;;;9.97;4.17;;;15.30;81.50;;;;;;5202642;28;21046;-50
2023/05/02 08:51:34;;;;;;;7.43;5.20;;;15.10;85.70;;;;;;5194759;28;20532;-50
2023/05/02 08:54:08;;;;;;;4.80;4.30;;;14.90;90.40;;;;;;5195541;28;21033;-50
2023/05/02 08:56:39;;;;;;;5.90;4.37;;;14.90;91.80;;;;;;5206958;28;20455;-50
2023/05/02 08:59:09;;;;;;;4.63;3.70;;;15.00;92.00;;;;;;5196170;28;20957;-51
2023/05/02 09:01:43;;;;;;;4.87;3.70;;;15.00;92.10;;;;;;5195826;28;20192;-50
2023/05/02 09:04:14;;;;;;;3.17;2.97;;;14.80;92.50;;;;;;5197774;28;20203;-50
2023/05/02 09:06:44;;;;;;;4.70;4.17;;;15.00;93.30;;;;;;5180543;28;20446;-49
2023/05/02 09:09:15;;;;;;;4.80;3.10;;;15.10;93.10;;;;;;5199953;28;20257;-51
2023/05/02 09:11:47;;;;;;;4.10;3.67;;;15.20;93.40;;;;;;5203184;28;20259;-52
2023/05/02 09:14:17;;;;;;;8.77;4.00;;;15.60;92.50;;;;;;5200651;28;20889;-53
2023/05/02 09:16:49;;;;;;;6.87;4.43;;;15.60;92.50;;;;;;5202536;28;20541;-50
2023/05/02 09:19:27;;;;;;;5.50;3.63;;;15.50;92.50;;;;;;5207414;28;20717;-53
2023/05/02 09:22:01;;;;;;;6.43;3.43;;;15.70;92.70;;;;;;5203538;28;20506;-49
2023/05/02 09:24:31;;;;;;;4.03;3.63;;;15.80;92.70;;;;;;5199802;28;20466;-50
2023/05/02 09:27:04;;;;;;;3.70;3.43;;;15.60;92.50;;;;;;5202893;28;20452;-54
2023/05/02 09:29:34;;;;;;;4.20;3.80;;;15.50;92.60;;;;;;5214081;28;20242;-48
2023/05/02 09:32:05;;;;;;;3.83;3.53;;;15.30;93.50;;;;;;5200217;28;20525;-50
2023/05/02 09:34:38;;;;;;;5.90;4.70;;;15.30;94.50;;;;;;5200921;28;20211;-53
2023/05/02 09:37:10;;;;;;;8.57;3.63;;;15.30;94.60;;;;;;5218809;28;20183;-50
2023/05/02 09:39:41;;;;;;;4.90;4.50;;;15.30;95.10;;;;;;5194384;28;20852;-50
2023/05/02 09:42:12;;;;;;;6.73;4.53;;;15.40;95.00;;;;;;5202319;28;20443;-49
2023/05/02 09:44:43;;;;;;;3.37;3.07;;;15.20;95.20;;;;;;5197124;28;20873;-51
2023/05/02 09:47:25;;;;;;;4.40;4.00;;;15.20;95.80;;;;;;5198001;28;20194;-51
2023/05/02 09:49:56;;;;;;;4.27;3.90;;;15.10;96.30;;;;;;5194242;28;21753;-53
2023/05/02 09:52:26;;;;;;;3.03;2.90;;;15.30;96.60;;;;;;5205022;28;20431;-50
2023/05/02 09:54:57;;;;;;;7.60;3.43;;;15.60;95.50;;;;;;5197844;28;20211;-52
2023/05/02 09:57:42;;;;;;;6.43;3.23;;;15.70;94.20;;;;;;5200261;28;20240;-50
2023/05/02 10:00:16;;;;;;;3.03;2.60;;;15.80;93.50;;;;;;5201411;28;20198;-49
2023/05/02 10:02:50;;;;;;;5.70;3.80;;;15.90;93.10;;;;;;5195861;28;20437;-50
2023/05/02 10:05:21;;;;;;;3.87;3.00;;;16.30;93.00;;;;;;5200109;28;20461;-50
2023/05/02 10:07:52;;;;;;;10.63;2.90;;;16.90;91.50;;;;;;5203214;28;20487;-51
2023/05/02 10:10:23;;;;;;;2.43;2.33;;;17.30;86.70;;;;;;5208498;28;20481;-50
2023/05/02 10:12:54;;;;;;;1.77;1.70;;;17.40;82.70;;;;;;5215539;28;20630;-48
2023/05/02 10:15:28;;;;;;;2.83;2.47;;;17.10;80.40;;;;;;5199443;28;20998;-51
2023/05/02 10:18:02;;;;;;;2.30;2.20;;;16.90;81.50;;;;;;5214329;28;20446;-50
2023/05/02 10:20:41;;;;;;;2.77;2.40;;;16.40;84.60;;;;;;5220421;28;20673;-51
2023/05/02 10:23:14;;;;;;;3.63;3.30;;;16.20;88.10;;;;;;5204787;28;20525;-52
2023/05/02 10:25:45;;;;;;;3.30;3.00;;;16.10;89.80;;;;;;5200986;28;20771;-51
2023/05/02 10:28:16;;;;;;;3.00;2.80;;;16.20;88.80;;;;;;5201994;28;20442;-52
2023/05/02 10:30:48;;;;;;;2.50;2.40;;;16.10;89.00;;;;;;5195411;28;20550;-50
2023/05/02 10:33:22;;;;;;;2.77;2.67;;;16.20;90.20;;;;;;5203746;28;20176;-52
2023/05/02 10:35:53;;;;;;;2.90;2.70;;;16.10;90.50;;;;;;5201087;28;20442;-51
2023/05/02 10:38:24;;;;;;;9.63;2.50;;;16.00;91.00;;;;;;5214354;28;21182;-50
2023/05/02 10:41:01;;;;;;;4.23;2.87;;;15.80;91.50;;;;;;5201800;28;20222;-50
2023/05/02 10:43:34;;;;;;;3.07;2.73;;;15.50;91.80;;;;;;5197703;28;20448;-49
2023/05/02 10:46:29;;;;;;;3.20;2.17;;;15.60;92.70;;;;;;5198316;28;20572;-49
2023/05/02 10:49:10;;;;;;;7.43;2.90;;;15.50;92.90;;;;;;5190760;28;20521;-50
2023/05/02 10:51:41;;;;;;;1.90;1.80;;;15.20;93.30;;;;;;5198290;28;20461;-50
2023/05/02 10:54:23;;;;;;;5.83;2.50;;;15.10;93.80;;;;;;5201084;28;20422;-51
2023/05/02 10:57:03;;;;;;;12.57;4.40;;;15.00;94.40;;;;;;5200246;28;20471;-50
2023/05/02 10:59:38;;;;;;;6.20;3.77;;;15.10;94.30;;;;;;5200655;28;20474;-52
2023/05/02 11:02:24;;;;;;;5.80;3.87;;;14.90;94.70;;;;;;5197896;28;20444;-51
2023/05/02 11:05:05;;;;;;;7.30;4.00;;;15.10;94.20;;;;;;5208865;28;20450;-50
2023/05/02 11:07:36;;;;;;;5.60;3.77;;;14.90;94.10;;;;;;5202539;28;20437;-51
2023/05/02 11:10:16;;;;;;;5.00;3.67;;;14.30;95.20;;;;;;5201065;28;20496;-50
2023/05/02 11:12:48;;;;;;;9.13;4.97;;;14.00;97.00;;;;;;5199349;28;20446;-51
2023/05/02 11:15:28;;;;;;;13.77;4.63;;;13.70;98.70;;;;;;5211116;28;20461;-49
2023/05/02 11:17:59;;;;;;;4.60;4.20;;;13.80;98.50;;;;;;5216122;28;20505;-51
2023/05/02 11:20:30;;;;;;;13.83;5.40;;;13.70;98.70;;;;;;5194664;28;20946;-49
2023/05/02 11:23:20;;;;;;;9.50;4.80;;;13.50;97.70;;;;;;5200415;28;21631;-51
2023/05/02 11:25:59;;;;;;;15.07;5.07;;;13.40;97.00;;;;;;5199128;28;20485;-50
2023/05/02 11:28:36;;;;;;;8.33;3.93;;;13.60;96.70;;;;;;5200436;28;20434;-50
2023/05/02 11:31:09;;;;;;;10.77;4.10;;;14.00;94.70;;;;;;5212668;28;20449;-50
2023/05/02 11:33:39;;;;;;;13.87;4.80;;;14.20;93.40;;;;;;5200248;28;20434;-51
2023/05/02 11:36:10;;;;;;;7.87;4.33;;;14.20;93.00;;;;;;5202358;28;20438;-50
2023/05/02 11:38:41;;;;;;;10.17;3.93;;;14.20;92.00;;;;;;5200169;28;20198;-52
2023/05/02 11:41:12;;;;;;;14.27;5.43;;;14.30;91.10;;;;;;5213488;28;20231;-52
2023/05/02 11:43:42;;;;;;;10.73;4.77;;;14.80;90.00;;;;;;5201725;28;20176;-51
2023/05/02 11:46:13;;;;;;;7.80;4.83;;;14.90;83.70;;;;;;5210592;28;20199;-51
2023/05/02 11:48:44;;;;;;;10.60;4.70;;;14.90;81.40;;;;;;5199468;28;20171;-49
2023/05/02 11:51:22;;;;;;;6.30;4.27;;;14.80;79.00;;;;;;5214457;28;20184;-51
2023/05/02 11:53:52;;;;;;;9.57;3.23;;;15.00;77.70;;;;;;5204332;28;20186;-51
2023/05/02 11:56:25;;;;;;;7.57;3.37;;;14.90;75.30;;;;;;5200342;28;20454;-52
2023/05/02 11:59:00;;;;;;;19.53;7.07;;;14.50;74.10;;;;;;5200579;28;20325;-50
2023/05/02 12:01:31;;;;;;;7.07;2.83;;;14.70;75.10;;;;;;5196843;28;20470;-51
2023/05/02 12:04:06;;;;;;;6.60;3.37;;;15.20;73.30;;;;;;5199447;28;20450;-50
2023/05/02 12:06:37;;;;;;;4.20;3.13;;;15.40;69.80;;;;;;5203196;28;20268;-50
2023/05/02 12:09:10;;;;;;;6.30;3.20;;;15.60;68.40;;;;;;5204370;28;20465;-51
2023/05/02 12:11:40;;;;;;;4.40;3.23;;;15.60;68.00;;;;;;5201540;28;20242;-50
2023/05/02 12:14:11;;;;;;;9.30;4.33;;;15.40;67.50;;;;;;5203657;28;20442;-52
2023/05/02 12:16:42;;;;;;;10.87;3.97;;;15.20;67.20;;;;;;5205465;28;20187;-48
2023/05/02 12:19:13;;;;;;;10.23;4.73;;;15.00;68.00;;;;;;5202941;28;20448;-51
2023/05/02 12:21:44;;;;;;;8.77;2.90;;;15.10;68.10;;;;;;5199103;28;20648;-51
2023/05/02 12:24:15;;;;;;;2.30;2.03;;;15.00;69.00;;;;;;5203289;28;20176;-51
2023/05/02 12:26:46;;;;;;;7.93;2.50;;;15.10;68.90;;;;;;5212460;28;20229;-50
2023/05/02 12:29:16;;;;;;;3.03;2.53;;;15.30;66.80;;;;;;5200937;28;20778;-50
2023/05/02 12:31:50;;;;;;;3.30;2.00;;;15.40;64.90;;;;;;5203228;28;20525;-49
2023/05/02 12:34:32;;;;;;;3.97;2.77;;;15.20;64.50;;;;;;5197112;28;20214;-50
2023/05/02 12:37:03;;;;;;;3.80;3.30;;;15.50;64.60;;;;;;5215485;28;20851;-51
2023/05/02 12:39:37;;;;;;;6.13;2.93;;;15.80;62.60;;;;;;5205629;28;20436;-50
2023/05/02 12:42:13;;;;;;;6.57;3.30;;;15.80;61.10;;;;;;5206639;28;20499;-49
2023/05/02 12:44:45;;;;;;;6.60;3.17;;;15.70;61.90;;;;;;5201666;28;20883;-50
2023/05/02 12:47:16;;;;;;;5.40;2.73;;;15.60;61.80;;;;;;5207840;28;20942;-51
2023/05/02 12:49:58;;;;;;;8.50;3.60;;;15.50;62.20;;;;;;5201322;28;20454;-50
2023/05/02 12:52:48;;;;;;;9.60;3.23;;;16.00;60.70;;;;;;5221552;28;20202;-51
2023/05/02 12:55:20;;;;;;;10.07;3.70;;;15.60;59.80;;;;;;5200648;28;20451;-52
2023/05/02 12:58:06;;;;;;;7.50;2.43;;;15.00;60.60;;;;;;5205401;28;20504;-50
2023/05/02 13:00:38;;;;;;;8.80;4.47;;;14.90;62.10;;;;;;5203358;28;20437;-50
2023/05/02 13:03:09;;;;;;;3.53;2.90;;;14.90;61.60;;;;;;5203185;28;20434;-51
2023/05/02 13:05:40;;;;;;;15.13;4.80;;;14.90;61.70;;;;;;5200878;28;20817;-49
2023/05/02 13:08:11;;;;;;;7.83;3.27;;;15.10;61.70;;;;;;5212136;28;20183;-53
2023/05/02 13:10:42;;;;;;;5.30;2.90;;;15.00;61.10;;;;;;5205007;28;20195;-50
2023/05/02 13:13:12;;;;;;;8.30;3.53;;;14.80;61.00;;;;;;5205203;28;20263;-52
2023/05/02 13:15:43;;;;;;;7.93;3.03;;;14.70;61.90;;;;;;5207833;28;20675;-50